createdAt,value
2023-03-12T00:02:09.934Z,-0.06
2023-03-12T00:04:28.178Z,-0.08
2023-03-12T00:06:48.548Z,-0.09
2023-03-12T00:09:06.632Z,-0.04
2023-03-12T00:11:22.248Z,0.07
2023-03-12T00:13:36.866Z,0.03
2023-03-12T00:15:52.437Z,-0.01
2023-03-12T00:18:07.063Z,0.00
2023-03-12T00:20:25.152Z,0.09
2023-03-12T00:22:40.716Z,0.03
2023-03-12T00:24:55.305Z,0.00
2023-03-12T00:27:13.408Z,0.21
2023-03-12T00:29:29.181Z,0.21
2023-03-12T00:31:47.157Z,0.15
2023-03-12T00:34:01.935Z,0.16
2023-03-12T00:36:22.449Z,0.16
2023-03-12T00:38:37.860Z,0.23
2023-03-12T00:40:56.113Z,0.28
2023-03-12T00:43:15.115Z,0.41
2023-03-12T00:45:29.609Z,0.51
2023-03-12T00:47:47.749Z,0.60
2023-03-12T00:50:03.305Z,0.62
2023-03-12T00:52:18.864Z,0.68
2023-03-12T00:54:34.486Z,0.75
2023-03-12T00:56:50.052Z,0.72
2023-03-12T00:59:05.667Z,0.71
2023-03-12T01:01:17.892Z,0.79
2023-03-12T01:03:35.776Z,0.83
2023-03-12T01:05:53.915Z,0.89
2023-03-12T01:08:11.959Z,0.80
2023-03-12T01:10:26.554Z,0.76
2023-03-12T01:12:44.630Z,0.75
2023-03-12T01:15:05.280Z,0.75
2023-03-12T01:17:23.359Z,0.75
2023-03-12T01:19:38.932Z,0.61
2023-03-12T01:21:54.547Z,0.51
2023-03-12T01:24:12.619Z,0.45
2023-03-12T01:26:30.710Z,0.48
2023-03-12T01:28:48.825Z,0.57
2023-03-12T01:31:04.422Z,0.67
2023-03-12T01:33:22.504Z,0.75
2023-03-12T01:35:41.042Z,0.76
2023-03-12T01:37:58.940Z,0.80
2023-03-12T01:40:13.582Z,0.88
2023-03-12T01:42:31.654Z,0.90
2023-03-12T01:44:47.243Z,0.92
2023-03-12T01:47:05.345Z,0.92
2023-03-12T01:49:23.428Z,0.92
2023-03-12T01:51:39.061Z,0.86
2023-03-12T01:53:54.667Z,0.82
2023-03-12T01:56:10.173Z,0.82
2023-03-12T01:58:28.245Z,0.72
2023-03-12T02:00:43.870Z,0.71
2023-03-12T02:03:01.975Z,0.71
2023-03-12T02:05:17.547Z,0.68
2023-03-12T02:07:35.704Z,0.62
2023-03-12T02:09:51.219Z,0.57
2023-03-12T02:12:07.932Z,0.48
2023-03-12T02:14:25.917Z,0.36
2023-03-12T02:16:44.058Z,0.23
2023-03-12T02:19:02.045Z,0.10
2023-03-12T02:21:22.680Z,0.06
2023-03-12T02:23:40.779Z,0.09
2023-03-12T02:25:56.368Z,0.15
2023-03-12T02:28:11.942Z,0.18
2023-03-12T02:30:27.539Z,0.21
2023-03-12T02:32:43.717Z,0.18
2023-03-12T02:35:01.206Z,0.12
2023-03-12T02:37:19.294Z,0.02
2023-03-12T02:39:34.870Z,-0.01
2023-03-12T02:41:52.970Z,0.00
2023-03-12T02:44:11.045Z,0.03
2023-03-12T02:46:24.714Z,0.06
2023-03-12T02:48:42.731Z,-0.01
2023-03-12T02:51:00.793Z,-0.06
2023-03-12T02:53:18.881Z,-0.12
2023-03-12T02:55:36.964Z,-0.13
2023-03-12T02:57:55.947Z,-0.13
2023-03-12T03:00:13.150Z,-0.15
2023-03-12T03:02:32.793Z,-0.15
2023-03-12T03:04:49.351Z,-0.18
2023-03-12T03:07:07.448Z,-0.24
2023-03-12T03:09:28.012Z,-0.37
2023-03-12T03:11:44.603Z,-0.45
2023-03-12T03:14:02.686Z,-0.55
2023-03-12T03:16:20.869Z,-0.60
2023-03-12T03:18:38.937Z,-0.59
2023-03-12T03:20:54.450Z,-0.63
2023-03-12T03:23:12.564Z,-0.70
2023-03-12T03:25:30.619Z,-0.78
2023-03-12T03:27:48.745Z,-0.66
2023-03-12T03:30:07.778Z,-0.65
2023-03-12T03:32:25.253Z,-0.73
2023-03-12T03:34:40.832Z,-0.78
2023-03-12T03:36:58.905Z,-0.70
2023-03-12T03:39:14.559Z,-0.69
2023-03-12T03:41:30.140Z,-0.73
2023-03-12T03:43:45.714Z,-0.68
2023-03-12T03:46:04.872Z,-0.63
2023-03-12T03:48:22.868Z,-0.68
2023-03-12T03:50:40.953Z,-0.57
2023-03-12T03:52:56.386Z,-0.60
2023-03-12T03:55:11.194Z,-0.55
2023-03-12T03:57:29.305Z,-0.51
2023-03-12T03:59:44.844Z,-0.51
2023-03-12T04:02:00.453Z,-0.50
2023-03-12T04:04:16.104Z,-0.50
2023-03-12T04:06:31.626Z,-0.54
2023-03-12T04:08:48.810Z,-0.57
2023-03-12T04:11:02.807Z,-0.55
2023-03-12T04:13:18.392Z,-0.63
2023-03-12T04:15:36.598Z,-0.62
2023-03-12T04:17:52.166Z,-0.48
2023-03-12T04:20:10.248Z,-0.48
2023-03-12T04:22:26.605Z,-0.52
2023-03-12T04:24:41.348Z,-0.60
2023-03-12T04:26:56.939Z,-0.68
2023-03-12T04:29:15.052Z,-0.73
2023-03-12T04:31:30.756Z,-0.83
2023-03-12T04:33:46.342Z,-0.83
2023-03-12T04:35:59.430Z,-0.80
2023-03-12T04:38:20.041Z,-0.83
2023-03-12T04:40:38.084Z,-0.86
2023-03-12T04:42:54.742Z,-0.87
2023-03-12T04:45:10.294Z,-0.94
2023-03-12T04:47:23.451Z,-1.05
2023-03-12T04:49:39.132Z,-1.18
2023-03-12T04:51:54.130Z,-1.30
2023-03-12T04:54:10.788Z,-1.43
2023-03-12T04:56:24.327Z,-1.53
2023-03-12T04:58:37.861Z,-1.60
2023-03-12T05:00:51.492Z,-1.74
2023-03-12T05:03:07.100Z,-1.75
2023-03-12T05:05:22.783Z,-1.77
2023-03-12T05:07:36.228Z,-1.85
2023-03-12T05:09:49.800Z,-1.93
2023-03-12T05:12:07.937Z,-2.08
2023-03-12T05:14:21.086Z,-2.14
2023-03-12T05:16:37.045Z,-2.18
2023-03-12T05:18:51.159Z,-2.28
2023-03-12T05:21:06.864Z,-2.33
2023-03-12T05:23:20.375Z,-2.38
2023-03-12T05:25:36.168Z,-2.42
2023-03-12T05:27:49.556Z,-2.45
2023-03-12T05:30:03.147Z,-2.51
2023-03-12T05:32:17.266Z,-2.57
2023-03-12T05:34:32.341Z,-2.60
2023-03-12T05:36:48.524Z,-2.68
2023-03-12T05:39:01.066Z,-2.72
2023-03-12T05:41:14.780Z,-2.72
2023-03-12T05:43:28.772Z,-2.74
2023-03-12T05:45:41.359Z,-2.71
2023-03-12T05:47:56.936Z,-2.74
2023-03-12T05:50:10.982Z,-2.74
2023-03-12T05:52:25.172Z,-2.79
2023-03-12T05:54:38.385Z,-2.85
2023-03-12T05:56:51.073Z,-2.89
2023-03-12T05:59:06.130Z,-2.90
2023-03-12T06:01:16.806Z,-2.81
2023-03-12T06:03:31.049Z,-2.72
2023-03-12T06:05:43.335Z,-2.66
2023-03-12T06:07:54.551Z,-2.64
2023-03-12T06:10:10.151Z,-2.68
2023-03-12T06:12:25.118Z,-2.64
2023-03-12T06:14:35.880Z,-2.60
2023-03-12T06:16:49.051Z,-2.53
2023-03-12T06:19:03.157Z,-2.42
2023-03-12T06:21:17.628Z,-2.35
2023-03-12T06:23:29.745Z,-2.29
2023-03-12T06:25:45.346Z,-2.21
2023-03-12T06:27:58.228Z,-2.14
2023-03-12T06:30:11.100Z,-2.08
2023-03-12T06:32:24.629Z,-2.02
2023-03-12T06:34:36.277Z,-1.93
2023-03-12T06:36:50.753Z,-1.87
2023-03-12T06:39:03.526Z,-1.72
2023-03-12T06:41:15.628Z,-1.54
2023-03-12T06:43:29.246Z,-1.41
2023-03-12T06:45:43.854Z,-1.31
2023-03-12T06:47:57.739Z,-1.31
2023-03-12T06:50:10.085Z,-1.18
2023-03-12T06:52:22.136Z,-1.05
2023-03-12T06:54:35.727Z,-0.84
2023-03-12T06:56:49.381Z,-0.72
2023-03-12T06:59:02.903Z,-0.55
2023-03-12T07:01:16.492Z,-0.45
2023-03-12T07:03:31.097Z,-0.30
2023-03-12T07:05:46.250Z,-0.22
2023-03-12T07:08:11.799Z,-0.13
2023-03-12T07:10:24.322Z,-0.04
2023-03-12T07:12:38.034Z,0.03
2023-03-12T07:14:51.568Z,0.13
2023-03-12T07:17:09.613Z,0.24
2023-03-12T07:19:22.701Z,0.34
2023-03-12T07:21:36.484Z,0.39
2023-03-12T07:23:49.886Z,0.45
2023-03-12T07:26:01.967Z,0.51
2023-03-12T07:28:14.660Z,0.53
2023-03-12T07:30:27.664Z,0.64
2023-03-12T07:32:41.383Z,0.71
2023-03-12T07:34:56.682Z,0.80
2023-03-12T07:37:12.305Z,0.88
2023-03-12T07:51:26.348Z,1.44
2023-03-12T08:16:48.500Z,2.27
2023-03-12T08:56:43.157Z,4.08
2023-03-12T08:58:58.824Z,4.06
2023-03-12T09:01:16.820Z,4.21
2023-03-12T09:03:32.423Z,4.70
2023-03-12T09:05:50.782Z,4.88
2023-03-12T09:08:06.787Z,4.62
2023-03-12T09:10:24.873Z,4.22
2023-03-12T09:12:42.934Z,4.19
2023-03-12T09:15:03.342Z,4.47
2023-03-12T09:17:14.142Z,4.65
2023-03-12T09:19:52.479Z,4.77
2023-03-12T09:21:57.368Z,4.75
2023-03-12T09:24:13.811Z,4.95
2023-03-12T09:26:28.278Z,5.17
2023-03-12T09:28:43.944Z,5.09
2023-03-12T09:30:59.520Z,5.13
2023-03-12T09:33:14.213Z,5.19
2023-03-12T09:35:27.310Z,5.16
2023-03-12T09:37:42.894Z,5.12
2023-03-12T09:39:58.596Z,5.13
2023-03-12T09:42:14.133Z,5.57
2023-03-12T09:44:29.675Z,5.89
2023-03-12T09:46:45.281Z,6.07
2023-03-12T09:49:04.374Z,5.82
2023-03-12T09:51:22.434Z,5.93
2023-03-12T09:53:40.646Z,5.96
2023-03-12T09:55:55.161Z,6.11
2023-03-12T09:58:10.785Z,6.25
2023-03-12T10:00:26.363Z,6.47
2023-03-12T10:02:39.463Z,6.36
2023-03-12T10:04:59.785Z,6.43
2023-03-12T10:07:10.643Z,6.36
2023-03-12T10:09:28.712Z,6.32
2023-03-12T10:11:47.663Z,6.54
2023-03-12T10:14:07.425Z,6.43
2023-03-12T10:16:22.577Z,6.43
2023-03-12T10:18:37.647Z,6.63
2023-03-12T10:20:55.703Z,6.62
2023-03-12T10:23:12.102Z,6.91
2023-03-12T10:25:26.844Z,7.12
2023-03-12T10:27:42.495Z,7.08
2023-03-12T10:29:55.548Z,7.17
2023-03-12T10:32:11.137Z,6.81
2023-03-12T10:34:36.672Z,6.69
2023-03-12T10:36:52.302Z,6.77
2023-03-12T10:39:08.868Z,6.97
2023-03-12T10:41:24.477Z,7.02
2023-03-12T10:43:41.193Z,7.58
2023-03-12T10:45:59.294Z,7.72
2023-03-12T10:48:14.828Z,8.07
2023-03-12T10:50:30.384Z,8.07
2023-03-12T10:52:46.112Z,7.59
2023-03-12T10:55:01.668Z,7.09
2023-03-12T10:57:19.772Z,7.44
2023-03-12T10:59:36.421Z,7.60
2023-03-12T11:01:52.028Z,7.72
2023-03-12T11:04:05.084Z,7.71
2023-03-12T11:06:20.828Z,7.62
2023-03-12T11:08:35.300Z,7.49
2023-03-12T11:10:53.426Z,7.16
2023-03-12T11:13:09.008Z,6.51
2023-03-12T11:15:23.680Z,6.47
2023-03-12T11:17:37.212Z,6.68
2023-03-12T11:19:55.242Z,6.89
2023-03-12T11:22:13.326Z,6.87
2023-03-12T11:24:28.937Z,6.89
2023-03-12T11:26:47.022Z,6.83
2023-03-12T11:29:05.173Z,6.91
2023-03-12T11:31:18.884Z,7.02
2023-03-12T11:33:34.358Z,7.16
2023-03-12T11:35:50.043Z,7.22
2023-03-12T11:38:08.077Z,7.20
2023-03-12T11:40:26.176Z,7.19
2023-03-12T11:42:40.739Z,7.23
2023-03-12T11:44:55.311Z,7.35
2023-03-12T11:47:10.935Z,7.31
2023-03-12T11:49:28.984Z,7.34
2023-03-12T11:51:44.615Z,7.56
2023-03-12T11:54:01.190Z,7.78
2023-03-12T11:56:19.688Z,7.84
2023-03-12T13:44:49.524Z,6.43
2023-03-12T14:09:07.731Z,6.03
2023-03-12T14:11:24.463Z,6.00
2023-03-12T14:13:46.053Z,6.09
2023-03-12T14:16:04.968Z,6.11
2023-03-12T14:18:25.469Z,6.11
2023-03-12T14:20:46.131Z,6.13
2023-03-12T14:23:05.105Z,6.14
2023-03-12T14:25:23.240Z,6.09
2023-03-12T14:27:44.220Z,5.91
2023-03-12T14:30:04.780Z,5.78
2023-03-12T14:32:24.030Z,5.67
2023-03-12T14:34:40.245Z,5.53
2023-03-12T14:36:55.109Z,5.49
2023-03-12T14:39:12.892Z,5.50
2023-03-12T14:41:29.897Z,5.55
2023-03-12T14:43:50.840Z,5.59
2023-03-12T14:46:09.269Z,5.64
2023-03-12T14:48:23.757Z,5.57
2023-03-12T14:50:40.065Z,5.59
2023-03-12T14:52:54.027Z,5.59
2023-03-12T14:55:13.060Z,5.60
2023-03-12T14:57:31.049Z,5.56
2023-03-12T14:59:49.327Z,5.48
2023-03-12T15:02:09.945Z,5.43
2023-03-12T15:04:32.303Z,5.49
2023-03-12T15:06:54.021Z,5.45
2023-03-12T15:09:14.441Z,5.34
2023-03-12T15:11:36.124Z,5.27
2023-03-12T15:13:54.120Z,5.22
2023-03-12T15:16:10.900Z,5.23
2023-03-12T15:18:28.799Z,5.20
2023-03-12T15:20:46.772Z,5.16
2023-03-12T15:23:05.130Z,5.12
2023-03-12T15:25:23.230Z,5.09
2023-03-12T15:27:40.925Z,5.04
2023-03-12T15:29:58.900Z,5.01
2023-03-12T15:32:17.189Z,4.92
2023-03-12T15:34:34.978Z,4.79
2023-03-12T15:36:51.525Z,4.72
2023-03-12T15:39:09.624Z,4.72
2023-03-12T15:41:28.024Z,4.73
2023-03-12T15:43:48.386Z,4.73
2023-03-12T15:46:07.224Z,4.79
2023-03-12T15:48:25.270Z,4.76
2023-03-12T15:50:48.058Z,4.76
2023-03-12T15:53:03.385Z,4.76
2023-03-12T15:55:18.775Z,4.67
2023-03-12T15:57:34.829Z,4.59
2023-03-12T15:59:55.418Z,4.50
2023-03-12T16:02:12.661Z,4.44
2023-03-12T16:04:44.326Z,4.50
2023-03-12T16:07:00.924Z,4.50
2023-03-12T16:09:18.614Z,4.42
2023-03-12T16:11:35.749Z,4.37
2023-03-12T16:13:56.286Z,4.32
2023-03-12T16:16:14.427Z,4.26
2023-03-12T16:18:32.307Z,4.16
2023-03-12T16:20:45.307Z,4.08
2023-03-12T16:23:06.348Z,4.01
2023-03-12T16:25:24.450Z,3.96
2023-03-12T16:27:37.389Z,3.92
2023-03-12T16:29:57.707Z,3.88
2023-03-12T16:32:19.537Z,3.83
2023-03-12T16:34:37.723Z,3.80
2023-03-12T16:36:52.738Z,3.76
2023-03-12T16:39:10.767Z,3.71
2023-03-12T16:41:28.732Z,3.71
2023-03-12T16:43:46.824Z,3.68
2023-03-12T16:46:08.417Z,3.65
2023-03-12T16:48:23.267Z,3.62
2023-03-12T16:50:43.667Z,3.62
2023-03-12T16:53:04.318Z,3.60
2023-03-12T16:55:22.371Z,3.61
2023-03-12T16:57:38.090Z,3.58
2023-03-12T16:59:56.701Z,3.58
2023-03-12T17:02:14.200Z,3.58
2023-03-12T17:04:32.610Z,3.57
2023-03-12T17:06:50.532Z,3.53
2023-03-12T17:09:08.665Z,3.53
2023-03-12T17:11:26.817Z,3.52
2023-03-12T17:13:42.342Z,3.52
2023-03-12T17:16:03.119Z,3.52
2023-03-12T17:17:02.667Z,3.52
2023-03-12T17:19:21.516Z,3.52
2023-03-12T17:21:37.885Z,3.52
2023-03-12T17:23:55.999Z,3.50
2023-03-12T17:26:14.102Z,3.50
2023-03-12T17:28:31.540Z,3.47
2023-03-12T17:30:49.203Z,3.46
2023-03-12T17:33:07.143Z,3.40
2023-03-12T17:35:23.880Z,3.34
2023-03-12T17:37:39.349Z,3.30
2023-03-12T17:39:57.587Z,3.25
2023-03-12T17:42:15.612Z,3.24
2023-03-12T17:44:35.286Z,3.21
2023-03-12T17:46:59.758Z,3.16
2023-03-12T17:49:11.569Z,3.15
2023-03-12T17:51:29.689Z,3.13
2023-03-12T17:53:46.100Z,3.09
2023-03-12T17:56:06.700Z,3.09
2023-03-12T17:58:24.565Z,3.10
2023-03-12T18:00:40.127Z,3.09
2023-03-12T18:02:55.897Z,3.10
2023-03-12T18:05:13.851Z,3.10
2023-03-12T18:07:32.224Z,3.10
2023-03-12T18:09:50.050Z,3.09
2023-03-12T18:12:04.922Z,3.09
2023-03-12T18:14:22.781Z,3.10
2023-03-12T18:16:41.055Z,3.07
2023-03-12T18:18:58.968Z,3.09
2023-03-12T18:21:15.734Z,3.09
2023-03-12T18:23:36.252Z,3.09
2023-03-12T18:25:54.521Z,3.09
2023-03-12T18:28:12.679Z,3.07
2023-03-12T18:30:32.982Z,3.09
2023-03-12T18:32:50.819Z,3.10
2023-03-12T18:35:08.900Z,3.09
2023-03-12T18:37:29.610Z,3.10
2023-03-12T18:39:45.772Z,3.07
2023-03-12T18:51:15.006Z,3.15
2023-03-12T19:01:30.182Z,3.23
2023-03-12T19:54:40.536Z,3.76
2023-03-12T20:12:51.000Z,3.98
2023-03-12T20:15:12.546Z,4.04
2023-03-12T20:29:21.704Z,4.21
2023-03-12T20:38:18.258Z,4.33
2023-03-12T20:44:34.245Z,4.43
2023-03-12T20:52:10.779Z,4.59
2023-03-12T21:21:45.775Z,4.94
2023-03-12T21:24:07.229Z,4.99
2023-03-12T21:26:25.751Z,5.04
2023-03-12T21:28:56.841Z,5.09
2023-03-12T21:33:03.831Z,5.14
2023-03-12T21:44:57.933Z,5.14
2023-03-12T22:37:48.814Z,5.48
2023-03-12T22:46:55.271Z,5.60
